sensor_id;sensor_type;location;lat;lon;timestamp;P1;durP1;ratioP1;P2;durP2;ratioP2
64157;SDS011;50449;51.528;5.076;2022-09-14T00:01:49;53.97;;;51.15;;
64157;SDS011;50449;51.528;5.076;2022-09-14T00:04:15;52.50;;;49.80;;
64157;SDS011;50449;51.528;5.076;2022-09-14T00:06:42;51.10;;;48.50;;
64157;SDS011;50449;51.528;5.076;2022-09-14T00:09:13;50.78;;;47.78;;
64157;SDS011;50449;51.528;5.076;2022-09-14T00:11:41;50.47;;;47.42;;
64157;SDS011;50449;51.528;5.076;2022-09-14T00:14:06;53.60;;;50.33;;
64157;SDS011;50449;51.528;5.076;2022-09-14T00:16:34;49.85;;;47.28;;
64157;SDS011;50449;51.528;5.076;2022-09-14T00:19:02;52.72;;;49.95;;
64157;SDS011;50449;51.528;5.076;2022-09-14T00:21:30;49.85;;;47.15;;
64157;SDS011;50449;51.528;5.076;2022-09-14T00:24:03;51.40;;;48.60;;
64157;SDS011;50449;51.528;5.076;2022-09-14T00:26:30;47.03;;;44.72;;
64157;SDS011;50449;51.528;5.076;2022-09-14T00:28:56;51.97;;;49.33;;
64157;SDS011;50449;51.528;5.076;2022-09-14T00:31:22;49.00;;;46.30;;
64157;SDS011;50449;51.528;5.076;2022-09-14T00:33:49;55.08;;;52.03;;
64157;SDS011;50449;51.528;5.076;2022-09-14T00:36:20;52.08;;;49.40;;
64157;SDS011;50449;51.528;5.076;2022-09-14T00:38:47;51.17;;;48.67;;
64157;SDS011;50449;51.528;5.076;2022-09-14T00:41:15;49.75;;;47.13;;
64157;SDS011;50449;51.528;5.076;2022-09-14T00:46:28;49.55;;;46.85;;
64157;SDS011;50449;51.528;5.076;2022-09-14T00:48:56;47.78;;;45.28;;
64157;SDS011;50449;51.528;5.076;2022-09-14T00:53:49;48.72;;;46.42;;
64157;SDS011;50449;51.528;5.076;2022-09-14T00:56:15;49.13;;;46.53;;
64157;SDS011;50449;51.528;5.076;2022-09-14T00:58:42;48.60;;;46.20;;
64157;SDS011;50449;51.528;5.076;2022-09-14T01:01:13;50.15;;;47.65;;
64157;SDS011;50449;51.528;5.076;2022-09-14T01:03:39;48.65;;;46.28;;
64157;SDS011;50449;51.528;5.076;2022-09-14T01:20:17;48.85;;;46.35;;
64157;SDS011;50449;51.528;5.076;2022-09-14T01:29:00;49.08;;;46.67;;
64157;SDS011;50449;51.528;5.076;2022-09-14T01:31:49;49.05;;;46.40;;
64157;SDS011;50449;51.528;5.076;2022-09-14T01:37:32;47.47;;;44.88;;
64157;SDS011;50449;51.528;5.076;2022-09-14T01:40:29;48.33;;;45.67;;
64157;SDS011;50449;51.528;5.076;2022-09-14T01:43:09;46.22;;;43.83;;
64157;SDS011;50449;51.528;5.076;2022-09-14T01:45:40;46.20;;;43.80;;
64157;SDS011;50449;51.528;5.076;2022-09-14T01:48:16;49.17;;;46.47;;
64157;SDS011;50449;51.528;5.076;2022-09-14T01:50:46;50.13;;;47.58;;
64157;SDS011;50449;51.528;5.076;2022-09-14T01:53:34;49.10;;;46.33;;
64157;SDS011;50449;51.528;5.076;2022-09-14T01:56:07;46.30;;;43.75;;
64157;SDS011;50449;51.528;5.076;2022-09-14T01:58:49;49.08;;;46.67;;
64157;SDS011;50449;51.528;5.076;2022-09-14T02:01:22;46.97;;;43.80;;
64157;SDS011;50449;51.528;5.076;2022-09-14T02:03:56;46.78;;;44.13;;
64157;SDS011;50449;51.528;5.076;2022-09-14T02:09:04;45.47;;;42.97;;
64157;SDS011;50449;51.528;5.076;2022-09-14T02:11:33;46.30;;;44.00;;
64157;SDS011;50449;51.528;5.076;2022-09-14T02:13:58;46.65;;;44.15;;
64157;SDS011;50449;51.528;5.076;2022-09-14T02:16:24;48.90;;;46.17;;
64157;SDS011;50449;51.528;5.076;2022-09-14T02:18:50;45.47;;;42.88;;
64157;SDS011;50449;51.528;5.076;2022-09-14T02:21:16;49.65;;;46.85;;
64157;SDS011;50449;51.528;5.076;2022-09-14T02:23:45;46.00;;;43.38;;
64157;SDS011;50449;51.528;5.076;2022-09-14T02:26:13;46.22;;;43.92;;
64157;SDS011;50449;51.528;5.076;2022-09-14T02:28:39;47.60;;;44.95;;
64157;SDS011;50449;51.528;5.076;2022-09-14T02:31:15;48.63;;;46.17;;
64157;SDS011;50449;51.528;5.076;2022-09-14T02:34:12;46.38;;;43.72;;
64157;SDS011;50449;51.528;5.076;2022-09-14T02:50:39;44.67;;;42.55;;
64157;SDS011;50449;51.528;5.076;2022-09-14T02:53:48;43.65;;;41.25;;
64157;SDS011;50449;51.528;5.076;2022-09-14T02:56:23;46.55;;;44.15;;
64157;SDS011;50449;51.528;5.076;2022-09-14T02:58:50;45.05;;;42.85;;
64157;SDS011;50449;51.528;5.076;2022-09-14T03:01:19;46.83;;;44.22;;
64157;SDS011;50449;51.528;5.076;2022-09-14T03:03:45;45.85;;;43.45;;
64157;SDS011;50449;51.528;5.076;2022-09-14T03:06:11;44.85;;;42.70;;
64157;SDS011;50449;51.528;5.076;2022-09-14T03:08:37;44.63;;;42.15;;
64157;SDS011;50449;51.528;5.076;2022-09-14T03:11:04;43.67;;;41.47;;
64157;SDS011;50449;51.528;5.076;2022-09-14T03:13:29;47.13;;;44.60;;
64157;SDS011;50449;51.528;5.076;2022-09-14T03:15:55;46.78;;;44.22;;
64157;SDS011;50449;51.528;5.076;2022-09-14T03:18:20;44.55;;;42.13;;
64157;SDS011;50449;51.528;5.076;2022-09-14T03:20:46;44.47;;;41.97;;
64157;SDS011;50449;51.528;5.076;2022-09-14T03:23:11;42.10;;;40.08;;
64157;SDS011;50449;51.528;5.076;2022-09-14T03:25:38;44.67;;;42.42;;
64157;SDS011;50449;51.528;5.076;2022-09-14T03:28:06;45.25;;;42.92;;
64157;SDS011;50449;51.528;5.076;2022-09-14T03:30:32;44.03;;;41.72;;
64157;SDS011;50449;51.528;5.076;2022-09-14T03:32:58;42.38;;;40.28;;
64157;SDS011;50449;51.528;5.076;2022-09-14T03:35:24;45.60;;;43.03;;
64157;SDS011;50449;51.528;5.076;2022-09-14T03:37:50;44.70;;;42.20;;
64157;SDS011;50449;51.528;5.076;2022-09-14T03:40:15;46.90;;;44.38;;
64157;SDS011;50449;51.528;5.076;2022-09-14T03:42:46;43.33;;;40.85;;
64157;SDS011;50449;51.528;5.076;2022-09-14T03:45:12;44.05;;;41.65;;
64157;SDS011;50449;51.528;5.076;2022-09-14T03:47:40;45.58;;;43.17;;
64157;SDS011;50449;51.528;5.076;2022-09-14T03:50:07;42.60;;;40.35;;
64157;SDS011;50449;51.528;5.076;2022-09-14T03:52:34;44.65;;;42.33;;
64157;SDS011;50449;51.528;5.076;2022-09-14T03:55:00;44.72;;;42.33;;
64157;SDS011;50449;51.528;5.076;2022-09-14T03:57:25;46.95;;;44.45;;
64157;SDS011;50449;51.528;5.076;2022-09-14T03:59:51;43.92;;;41.65;;
64157;SDS011;50449;51.528;5.076;2022-09-14T04:02:16;42.90;;;40.60;;
64157;SDS011;50449;51.528;5.076;2022-09-14T04:04:42;43.28;;;41.03;;
64157;SDS011;50449;51.528;5.076;2022-09-14T04:07:07;43.13;;;40.78;;
64157;SDS011;50449;51.528;5.076;2022-09-14T04:09:32;43.17;;;40.83;;
64157;SDS011;50449;51.528;5.076;2022-09-14T04:11:58;43.97;;;41.88;;
64157;SDS011;50449;51.528;5.076;2022-09-14T04:14:24;43.05;;;40.65;;
64157;SDS011;50449;51.528;5.076;2022-09-14T04:16:50;42.17;;;39.78;;
64157;SDS011;50449;51.528;5.076;2022-09-14T04:19:15;43.92;;;41.63;;
64157;SDS011;50449;51.528;5.076;2022-09-14T04:21:41;43.00;;;40.70;;
64157;SDS011;50449;51.528;5.076;2022-09-14T04:24:08;45.03;;;42.65;;
64157;SDS011;50449;51.528;5.076;2022-09-14T04:26:36;41.53;;;39.42;;
64157;SDS011;50449;51.528;5.076;2022-09-14T04:29:01;42.08;;;39.78;;
64157;SDS011;50449;51.528;5.076;2022-09-14T04:31:27;42.28;;;39.90;;
64157;SDS011;50449;51.528;5.076;2022-09-14T04:33:53;44.90;;;42.35;;
64157;SDS011;50449;51.528;5.076;2022-09-14T04:36:21;42.72;;;40.53;;
64157;SDS011;50449;51.528;5.076;2022-09-14T04:38:51;43.00;;;40.83;;
64157;SDS011;50449;51.528;5.076;2022-09-14T04:41:18;44.50;;;42.17;;
64157;SDS011;50449;51.528;5.076;2022-09-14T04:43:45;41.72;;;39.58;;
64157;SDS011;50449;51.528;5.076;2022-09-14T04:46:15;43.83;;;41.10;;
64157;SDS011;50449;51.528;5.076;2022-09-14T04:48:46;45.30;;;42.80;;
64157;SDS011;50449;51.528;5.076;2022-09-14T04:51:30;44.50;;;42.03;;
64157;SDS011;50449;51.528;5.076;2022-09-14T04:53:58;41.60;;;39.30;;
64157;SDS011;50449;51.528;5.076;2022-09-14T04:56:25;43.53;;;41.03;;
64157;SDS011;50449;51.528;5.076;2022-09-14T04:58:53;44.22;;;41.97;;
64157;SDS011;50449;51.528;5.076;2022-09-14T05:01:20;41.90;;;39.60;;
64157;SDS011;50449;51.528;5.076;2022-09-14T05:03:47;41.10;;;39.00;;
64157;SDS011;50449;51.528;5.076;2022-09-14T05:06:18;41.60;;;39.05;;
64157;SDS011;50449;51.528;5.076;2022-09-14T05:08:45;40.67;;;38.67;;
64157;SDS011;50449;51.528;5.076;2022-09-14T05:11:13;42.50;;;40.20;;
64157;SDS011;50449;51.528;5.076;2022-09-14T05:13:39;43.10;;;40.70;;
64157;SDS011;50449;51.528;5.076;2022-09-14T05:16:09;43.33;;;41.03;;
64157;SDS011;50449;51.528;5.076;2022-09-14T05:18:39;43.85;;;41.38;;
64157;SDS011;50449;51.528;5.076;2022-09-14T05:21:05;39.95;;;37.92;;
64157;SDS011;50449;51.528;5.076;2022-09-14T05:23:32;42.67;;;40.40;;
64157;SDS011;50449;51.528;5.076;2022-09-14T05:25:58;42.58;;;40.03;;
64157;SDS011;50449;51.528;5.076;2022-09-14T05:28:24;42.10;;;39.90;;
64157;SDS011;50449;51.528;5.076;2022-09-14T05:30:50;42.15;;;40.05;;
64157;SDS011;50449;51.528;5.076;2022-09-14T05:33:16;42.65;;;40.15;;
64157;SDS011;50449;51.528;5.076;2022-09-14T05:35:42;44.38;;;41.72;;
64157;SDS011;50449;51.528;5.076;2022-09-14T05:38:07;40.90;;;38.70;;
64157;SDS011;50449;51.528;5.076;2022-09-14T05:40:32;42.75;;;40.35;;
64157;SDS011;50449;51.528;5.076;2022-09-14T05:42:58;42.13;;;40.03;;
64157;SDS011;50449;51.528;5.076;2022-09-14T05:45:23;44.08;;;41.30;;
64157;SDS011;50449;51.528;5.076;2022-09-14T05:47:49;43.15;;;40.85;;
64157;SDS011;50449;51.528;5.076;2022-09-14T05:50:14;41.28;;;38.97;;
64157;SDS011;50449;51.528;5.076;2022-09-14T05:52:39;42.75;;;40.50;;
64157;SDS011;50449;51.528;5.076;2022-09-14T05:55:05;44.50;;;42.30;;
64157;SDS011;50449;51.528;5.076;2022-09-14T05:57:31;41.72;;;39.50;;
64157;SDS011;50449;51.528;5.076;2022-09-14T05:59:57;42.78;;;40.45;;
64157;SDS011;50449;51.528;5.076;2022-09-14T06:02:22;42.70;;;40.22;;
64157;SDS011;50449;51.528;5.076;2022-09-14T06:04:47;41.05;;;38.72;;
64157;SDS011;50449;51.528;5.076;2022-09-14T06:07:13;42.90;;;40.70;;
64157;SDS011;50449;51.528;5.076;2022-09-14T06:09:38;43.20;;;40.90;;
64157;SDS011;50449;51.528;5.076;2022-09-14T06:12:03;41.35;;;39.15;;
64157;SDS011;50449;51.528;5.076;2022-09-14T06:14:29;41.88;;;39.58;;
64157;SDS011;50449;51.528;5.076;2022-09-14T06:16:54;40.75;;;38.50;;
64157;SDS011;50449;51.528;5.076;2022-09-14T06:19:19;42.95;;;40.53;;
64157;SDS011;50449;51.528;5.076;2022-09-14T06:21:45;43.92;;;41.30;;
64157;SDS011;50449;51.528;5.076;2022-09-14T06:24:10;43.83;;;41.53;;
64157;SDS011;50449;51.528;5.076;2022-09-14T06:26:37;41.17;;;39.00;;
64157;SDS011;50449;51.528;5.076;2022-09-14T06:29:03;42.05;;;39.53;;
64157;SDS011;50449;51.528;5.076;2022-09-14T06:31:29;39.67;;;37.72;;
64157;SDS011;50449;51.528;5.076;2022-09-14T06:33:54;42.03;;;39.72;;
64157;SDS011;50449;51.528;5.076;2022-09-14T06:36:21;41.78;;;39.53;;
64157;SDS011;50449;51.528;5.076;2022-09-14T06:38:47;42.33;;;39.80;;
64157;SDS011;50449;51.528;5.076;2022-09-14T06:41:14;40.90;;;38.75;;
64157;SDS011;50449;51.528;5.076;2022-09-14T06:43:53;40.33;;;37.95;;
64157;SDS011;50449;51.528;5.076;2022-09-14T06:46:22;41.03;;;38.83;;
64157;SDS011;50449;51.528;5.076;2022-09-14T06:48:56;40.47;;;38.22;;
64157;SDS011;50449;51.528;5.076;2022-09-14T06:51:28;40.90;;;38.83;;
64157;SDS011;50449;51.528;5.076;2022-09-14T06:54:00;40.58;;;38.28;;
64157;SDS011;50449;51.528;5.076;2022-09-14T06:56:27;40.90;;;38.70;;
64157;SDS011;50449;51.528;5.076;2022-09-14T06:58:56;41.15;;;39.03;;
64157;SDS011;50449;51.528;5.076;2022-09-14T07:01:22;40.85;;;38.85;;
64157;SDS011;50449;51.528;5.076;2022-09-14T07:03:49;43.30;;;40.75;;
64157;SDS011;50449;51.528;5.076;2022-09-14T07:06:17;42.08;;;39.70;;
64157;SDS011;50449;51.528;5.076;2022-09-14T07:11:11;39.30;;;37.20;;
64157;SDS011;50449;51.528;5.076;2022-09-14T07:13:38;41.83;;;39.70;;
64157;SDS011;50449;51.528;5.076;2022-09-14T07:16:04;42.03;;;39.70;;
64157;SDS011;50449;51.528;5.076;2022-09-14T07:18:30;39.80;;;37.80;;
64157;SDS011;50449;51.528;5.076;2022-09-14T07:21:03;39.38;;;37.47;;
64157;SDS011;50449;51.528;5.076;2022-09-14T07:23:30;41.58;;;39.30;;
64157;SDS011;50449;51.528;5.076;2022-09-14T07:26:00;43.08;;;40.72;;
64157;SDS011;50449;51.528;5.076;2022-09-14T07:28:29;39.70;;;37.35;;
64157;SDS011;50449;51.528;5.076;2022-09-14T07:30:55;41.38;;;39.15;;
64157;SDS011;50449;51.528;5.076;2022-09-14T07:33:20;42.28;;;39.92;;
64157;SDS011;50449;51.528;5.076;2022-09-14T07:35:46;42.63;;;40.40;;
64157;SDS011;50449;51.528;5.076;2022-09-14T07:38:11;40.55;;;38.35;;
64157;SDS011;50449;51.528;5.076;2022-09-14T07:40:37;39.47;;;37.40;;
64157;SDS011;50449;51.528;5.076;2022-09-14T07:43:02;40.13;;;37.88;;
64157;SDS011;50449;51.528;5.076;2022-09-14T07:45:28;40.22;;;38.08;;
64157;SDS011;50449;51.528;5.076;2022-09-14T07:47:53;39.75;;;37.45;;
64157;SDS011;50449;51.528;5.076;2022-09-14T07:50:20;42.08;;;39.78;;
64157;SDS011;50449;51.528;5.076;2022-09-14T07:52:48;40.55;;;38.55;;
64157;SDS011;50449;51.528;5.076;2022-09-14T07:55:14;40.35;;;38.08;;
64157;SDS011;50449;51.528;5.076;2022-09-14T07:57:40;41.42;;;39.08;;
64157;SDS011;50449;51.528;5.076;2022-09-14T08:00:06;42.58;;;40.42;;
64157;SDS011;50449;51.528;5.076;2022-09-14T08:02:32;39.35;;;37.15;;
64157;SDS011;50449;51.528;5.076;2022-09-14T08:04:58;40.00;;;37.50;;
64157;SDS011;50449;51.528;5.076;2022-09-14T08:07:23;41.13;;;38.53;;
64157;SDS011;50449;51.528;5.076;2022-09-14T08:09:49;39.85;;;37.40;;
64157;SDS011;50449;51.528;5.076;2022-09-14T08:12:14;40.08;;;37.92;;
64157;SDS011;50449;51.528;5.076;2022-09-14T08:14:40;40.85;;;38.72;;
64157;SDS011;50449;51.528;5.076;2022-09-14T08:17:06;40.92;;;38.75;;
64157;SDS011;50449;51.528;5.076;2022-09-14T08:19:32;39.50;;;37.40;;
64157;SDS011;50449;51.528;5.076;2022-09-14T08:21:57;39.60;;;37.25;;
64157;SDS011;50449;51.528;5.076;2022-09-14T08:24:23;39.00;;;37.00;;
64157;SDS011;50449;51.528;5.076;2022-09-14T08:26:48;41.05;;;38.83;;
64157;SDS011;50449;51.528;5.076;2022-09-14T08:29:14;43.28;;;40.88;;
64157;SDS011;50449;51.528;5.076;2022-09-14T08:31:41;40.28;;;38.17;;
64157;SDS011;50449;51.528;5.076;2022-09-14T08:34:08;41.20;;;38.95;;
64157;SDS011;50449;51.528;5.076;2022-09-14T08:36:37;40.45;;;37.97;;
64157;SDS011;50449;51.528;5.076;2022-09-14T08:39:04;40.60;;;38.45;;
64157;SDS011;50449;51.528;5.076;2022-09-14T08:47:00;40.75;;;38.25;;
64157;SDS011;50449;51.528;5.076;2022-09-14T08:54:51;40.15;;;37.97;;
64157;SDS011;50449;51.528;5.076;2022-09-14T08:57:39;40.63;;;38.42;;
64157;SDS011;50449;51.528;5.076;2022-09-14T09:00:10;39.53;;;37.47;;
64157;SDS011;50449;51.528;5.076;2022-09-14T09:10:39;41.40;;;39.25;;
64157;SDS011;50449;51.528;5.076;2022-09-14T09:13:06;41.55;;;39.20;;
64157;SDS011;50449;51.528;5.076;2022-09-14T09:15:41;41.45;;;39.22;;
64157;SDS011;50449;51.528;5.076;2022-09-14T09:18:14;42.92;;;40.53;;
64157;SDS011;50449;51.528;5.076;2022-09-14T09:20:46;41.83;;;39.65;;
64157;SDS011;50449;51.528;5.076;2022-09-14T09:23:19;41.40;;;38.90;;
64157;SDS011;50449;51.528;5.076;2022-09-14T09:28:16;40.67;;;38.25;;
64157;SDS011;50449;51.528;5.076;2022-09-14T09:30:42;40.83;;;38.63;;
64157;SDS011;50449;51.528;5.076;2022-09-14T09:33:27;40.47;;;38.17;;
64157;SDS011;50449;51.528;5.076;2022-09-14T09:35:53;41.08;;;38.72;;
64157;SDS011;50449;51.528;5.076;2022-09-14T09:38:20;39.80;;;37.60;;
64157;SDS011;50449;51.528;5.076;2022-09-14T09:40:51;40.53;;;38.30;;
64157;SDS011;50449;51.528;5.076;2022-09-14T09:43:17;41.03;;;38.42;;
64157;SDS011;50449;51.528;5.076;2022-09-14T09:45:45;42.33;;;39.92;;
64157;SDS011;50449;51.528;5.076;2022-09-14T09:48:13;42.20;;;39.67;;
64157;SDS011;50449;51.528;5.076;2022-09-14T09:50:48;40.97;;;38.55;;
64157;SDS011;50449;51.528;5.076;2022-09-14T09:53:19;39.50;;;37.30;;
64157;SDS011;50449;51.528;5.076;2022-09-14T09:55:46;39.80;;;37.53;;
64157;SDS011;50449;51.528;5.076;2022-09-14T10:00:55;39.53;;;37.25;;
64157;SDS011;50449;51.528;5.076;2022-09-14T10:03:26;42.63;;;39.90;;
64157;SDS011;50449;51.528;5.076;2022-09-14T10:08:38;37.65;;;35.65;;
64157;SDS011;50449;51.528;5.076;2022-09-14T10:11:08;39.40;;;37.30;;
64157;SDS011;50449;51.528;5.076;2022-09-14T10:13:53;39.60;;;37.38;;
64157;SDS011;50449;51.528;5.076;2022-09-14T10:16:19;40.05;;;37.55;;
64157;SDS011;50449;51.528;5.076;2022-09-14T10:18:48;39.72;;;37.45;;
64157;SDS011;50449;51.528;5.076;2022-09-14T10:21:16;42.35;;;39.70;;
64157;SDS011;50449;51.528;5.076;2022-09-14T10:23:42;41.83;;;39.38;;
64157;SDS011;50449;51.528;5.076;2022-09-14T10:28:46;39.65;;;37.50;;
64157;SDS011;50449;51.528;5.076;2022-09-14T10:33:45;39.50;;;37.30;;
64157;SDS011;50449;51.528;5.076;2022-09-14T10:36:13;41.38;;;39.00;;
64157;SDS011;50449;51.528;5.076;2022-09-14T10:38:45;38.65;;;36.53;;
64157;SDS011;50449;51.528;5.076;2022-09-14T10:49:29;39.17;;;36.85;;
64157;SDS011;50449;51.528;5.076;2022-09-14T10:54:51;43.42;;;40.97;;
64157;SDS011;50449;51.528;5.076;2022-09-14T11:06:04;42.05;;;39.45;;
64157;SDS011;50449;51.528;5.076;2022-09-14T11:11:36;40.83;;;38.60;;
64157;SDS011;50449;51.528;5.076;2022-09-14T11:24:58;39.75;;;37.63;;
64157;SDS011;50449;51.528;5.076;2022-09-14T11:27:42;40.08;;;37.80;;
64157;SDS011;50449;51.528;5.076;2022-09-14T11:30:22;42.45;;;39.72;;
64157;SDS011;50449;51.528;5.076;2022-09-14T11:33:17;40.25;;;37.72;;
64157;SDS011;50449;51.528;5.076;2022-09-14T11:35:45;39.40;;;37.03;;
64157;SDS011;50449;51.528;5.076;2022-09-14T11:38:17;40.35;;;38.13;;
64157;SDS011;50449;51.528;5.076;2022-09-14T11:49:33;41.55;;;38.97;;
64157;SDS011;50449;51.528;5.076;2022-09-14T11:54:46;40.70;;;38.20;;
64157;SDS011;50449;51.528;5.076;2022-09-14T11:57:15;42.83;;;40.28;;
64157;SDS011;50449;51.528;5.076;2022-09-14T11:59:48;39.35;;;37.08;;
64157;SDS011;50449;51.528;5.076;2022-09-14T12:25:52;37.13;;;35.03;;
64157;SDS011;50449;51.528;5.076;2022-09-14T12:28:28;37.72;;;35.72;;
64157;SDS011;50449;51.528;5.076;2022-09-14T12:35:56;38.70;;;36.38;;
64157;SDS011;50449;51.528;5.076;2022-09-14T12:40:57;38.28;;;36.30;;
64157;SDS011;50449;51.528;5.076;2022-09-14T12:44:14;40.20;;;38.20;;
64157;SDS011;50449;51.528;5.076;2022-09-14T13:04:47;36.97;;;34.88;;
64157;SDS011;50449;51.528;5.076;2022-09-14T13:07:18;37.60;;;35.60;;
64157;SDS011;50449;51.528;5.076;2022-09-14T13:09:52;36.72;;;34.83;;
64157;SDS011;50449;51.528;5.076;2022-09-14T13:12:25;38.67;;;36.58;;
64157;SDS011;50449;51.528;5.076;2022-09-14T13:14:57;35.97;;;34.22;;
64157;SDS011;50449;51.528;5.076;2022-09-14T13:17:24;39.22;;;36.92;;
64157;SDS011;50449;51.528;5.076;2022-09-14T13:19:53;38.60;;;36.60;;
64157;SDS011;50449;51.528;5.076;2022-09-14T13:22:25;38.65;;;36.63;;
64157;SDS011;50449;51.528;5.076;2022-09-14T13:24:53;39.13;;;37.13;;
64157;SDS011;50449;51.528;5.076;2022-09-14T13:27:25;39.75;;;37.53;;
64157;SDS011;50449;51.528;5.076;2022-09-14T13:29:57;37.17;;;35.30;;
64157;SDS011;50449;51.528;5.076;2022-09-14T13:32:43;38.45;;;36.25;;
64157;SDS011;50449;51.528;5.076;2022-09-14T13:35:17;37.50;;;35.65;;
64157;SDS011;50449;51.528;5.076;2022-09-14T13:37:53;37.92;;;36.00;;
64157;SDS011;50449;51.528;5.076;2022-09-14T13:40:26;40.42;;;38.13;;
64157;SDS011;50449;51.528;5.076;2022-09-14T13:42:53;39.40;;;37.40;;
64157;SDS011;50449;51.528;5.076;2022-09-14T13:45:21;39.17;;;36.67;;
64157;SDS011;50449;51.528;5.076;2022-09-14T13:47:47;37.78;;;35.88;;
64157;SDS011;50449;51.528;5.076;2022-09-14T13:50:13;38.25;;;36.15;;
64157;SDS011;50449;51.528;5.076;2022-09-14T13:52:40;36.97;;;34.97;;
64157;SDS011;50449;51.528;5.076;2022-09-14T13:57:31;37.30;;;35.40;;
64157;SDS011;50449;51.528;5.076;2022-09-14T14:02:50;37.28;;;35.38;;
64157;SDS011;50449;51.528;5.076;2022-09-14T14:05:27;40.08;;;37.97;;
64157;SDS011;50449;51.528;5.076;2022-09-14T14:07:54;38.65;;;36.65;;
64157;SDS011;50449;51.528;5.076;2022-09-14T14:10:23;39.72;;;37.42;;
64157;SDS011;50449;51.528;5.076;2022-09-14T14:12:52;37.50;;;35.60;;
64157;SDS011;50449;51.528;5.076;2022-09-14T14:17:43;38.15;;;36.13;;
64157;SDS011;50449;51.528;5.076;2022-09-14T14:20:29;38.13;;;35.90;;
64157;SDS011;50449;51.528;5.076;2022-09-14T14:25:31;38.95;;;36.75;;
64157;SDS011;50449;51.528;5.076;2022-09-14T14:28:02;38.55;;;36.03;;
64157;SDS011;50449;51.528;5.076;2022-09-14T14:30:31;40.67;;;38.20;;
64157;SDS011;50449;51.528;5.076;2022-09-14T14:33:09;37.35;;;35.25;;
64157;SDS011;50449;51.528;5.076;2022-09-14T14:35:36;38.15;;;35.88;;
64157;SDS011;50449;51.528;5.076;2022-09-14T14:38:01;38.88;;;36.78;;
64157;SDS011;50449;51.528;5.076;2022-09-14T14:40:26;39.45;;;37.25;;
64157;SDS011;50449;51.528;5.076;2022-09-14T14:42:52;40.95;;;38.75;;
64157;SDS011;50449;51.528;5.076;2022-09-14T14:45:20;41.97;;;39.38;;
64157;SDS011;50449;51.528;5.076;2022-09-14T14:47:50;40.38;;;37.95;;
64157;SDS011;50449;51.528;5.076;2022-09-14T14:50:18;40.80;;;38.45;;
64157;SDS011;50449;51.528;5.076;2022-09-14T14:52:54;36.33;;;34.50;;
64157;SDS011;50449;51.528;5.076;2022-09-14T14:55:21;41.65;;;39.35;;
64157;SDS011;50449;51.528;5.076;2022-09-14T14:57:49;38.30;;;36.30;;
64157;SDS011;50449;51.528;5.076;2022-09-14T15:00:16;38.97;;;36.75;;
64157;SDS011;50449;51.528;5.076;2022-09-14T15:02:44;36.53;;;34.60;;
64157;SDS011;50449;51.528;5.076;2022-09-14T15:05:10;41.05;;;38.83;;
64157;SDS011;50449;51.528;5.076;2022-09-14T15:07:36;36.53;;;34.65;;
64157;SDS011;50449;51.528;5.076;2022-09-14T15:10:02;39.08;;;36.97;;
64157;SDS011;50449;51.528;5.076;2022-09-14T15:12:28;39.30;;;36.83;;
64157;SDS011;50449;51.528;5.076;2022-09-14T15:14:53;40.03;;;37.63;;
64157;SDS011;50449;51.528;5.076;2022-09-14T15:17:18;38.95;;;36.80;;
64157;SDS011;50449;51.528;5.076;2022-09-14T15:19:44;37.90;;;35.88;;
64157;SDS011;50449;51.528;5.076;2022-09-14T15:22:09;37.45;;;35.45;;
64157;SDS011;50449;51.528;5.076;2022-09-14T15:24:35;40.40;;;38.22;;
64157;SDS011;50449;51.528;5.076;2022-09-14T15:27:01;39.22;;;36.85;;
64157;SDS011;50449;51.528;5.076;2022-09-14T15:29:26;39.05;;;36.75;;
64157;SDS011;50449;51.528;5.076;2022-09-14T15:31:52;40.60;;;38.60;;
64157;SDS011;50449;51.528;5.076;2022-09-14T15:34:18;37.33;;;35.38;;
64157;SDS011;50449;51.528;5.076;2022-09-14T15:36:47;39.33;;;37.22;;
64157;SDS011;50449;51.528;5.076;2022-09-14T15:39:15;38.45;;;36.30;;
64157;SDS011;50449;51.528;5.076;2022-09-14T15:41:42;38.47;;;36.38;;
64157;SDS011;50449;51.528;5.076;2022-09-14T15:44:08;42.40;;;40.08;;
64157;SDS011;50449;51.528;5.076;2022-09-14T15:46:35;42.17;;;39.72;;
64157;SDS011;50449;51.528;5.076;2022-09-14T15:49:03;38.42;;;36.42;;
64157;SDS011;50449;51.528;5.076;2022-09-14T15:51:30;39.45;;;37.15;;
64157;SDS011;50449;51.528;5.076;2022-09-14T15:53:58;40.13;;;37.85;;
64157;SDS011;50449;51.528;5.076;2022-09-14T15:56:24;39.13;;;36.97;;
64157;SDS011;50449;51.528;5.076;2022-09-14T15:58:49;38.30;;;36.30;;
64157;SDS011;50449;51.528;5.076;2022-09-14T16:01:15;37.85;;;35.85;;
64157;SDS011;50449;51.528;5.076;2022-09-14T16:03:42;37.60;;;35.60;;
64157;SDS011;50449;51.528;5.076;2022-09-14T16:06:08;39.15;;;36.95;;
64157;SDS011;50449;51.528;5.076;2022-09-14T16:08:35;40.33;;;37.70;;
64157;SDS011;50449;51.528;5.076;2022-09-14T16:11:02;38.53;;;36.38;;
64157;SDS011;50449;51.528;5.076;2022-09-14T16:13:28;41.35;;;38.63;;
64157;SDS011;50449;51.528;5.076;2022-09-14T16:16:15;40.70;;;38.08;;
64157;SDS011;50449;51.528;5.076;2022-09-14T16:18:41;38.38;;;36.17;;
64157;SDS011;50449;51.528;5.076;2022-09-14T16:21:10;38.17;;;35.67;;
64157;SDS011;50449;51.528;5.076;2022-09-14T16:23:39;42.40;;;40.00;;
64157;SDS011;50449;51.528;5.076;2022-09-14T16:26:14;38.47;;;36.35;;
64157;SDS011;50449;51.528;5.076;2022-09-14T16:28:42;38.10;;;35.95;;
64157;SDS011;50449;51.528;5.076;2022-09-14T16:31:13;38.47;;;36.33;;
64157;SDS011;50449;51.528;5.076;2022-09-14T16:33:44;41.90;;;39.33;;
64157;SDS011;50449;51.528;5.076;2022-09-14T16:36:12;39.55;;;36.97;;
64157;SDS011;50449;51.528;5.076;2022-09-14T16:38:42;38.78;;;36.13;;
64157;SDS011;50449;51.528;5.076;2022-09-14T16:41:08;42.13;;;39.65;;
64157;SDS011;50449;51.528;5.076;2022-09-14T16:43:34;42.15;;;39.85;;
64157;SDS011;50449;51.528;5.076;2022-09-14T16:48:30;40.95;;;38.65;;
64157;SDS011;50449;51.528;5.076;2022-09-14T16:50:57;39.28;;;37.00;;
64157;SDS011;50449;51.528;5.076;2022-09-14T16:53:22;39.70;;;37.47;;
64157;SDS011;50449;51.528;5.076;2022-09-14T16:55:49;41.45;;;39.03;;
64157;SDS011;50449;51.528;5.076;2022-09-14T16:58:14;41.33;;;38.75;;
64157;SDS011;50449;51.528;5.076;2022-09-14T17:00:40;41.17;;;38.72;;
64157;SDS011;50449;51.528;5.076;2022-09-14T17:03:05;41.47;;;38.95;;
64157;SDS011;50449;51.528;5.076;2022-09-14T17:05:30;42.70;;;40.15;;
64157;SDS011;50449;51.528;5.076;2022-09-14T17:07:56;40.60;;;38.00;;
64157;SDS011;50449;51.528;5.076;2022-09-14T17:10:21;38.97;;;36.60;;
64157;SDS011;50449;51.528;5.076;2022-09-14T17:12:46;38.53;;;36.53;;
64157;SDS011;50449;51.528;5.076;2022-09-14T17:15:12;39.13;;;36.70;;
64157;SDS011;50449;51.528;5.076;2022-09-14T17:17:38;41.13;;;38.78;;
64157;SDS011;50449;51.528;5.076;2022-09-14T17:20:04;38.90;;;36.30;;
64157;SDS011;50449;51.528;5.076;2022-09-14T17:22:31;39.22;;;36.97;;
64157;SDS011;50449;51.528;5.076;2022-09-14T17:24:57;38.15;;;35.95;;
64157;SDS011;50449;51.528;5.076;2022-09-14T17:27:22;41.13;;;38.45;;
64157;SDS011;50449;51.528;5.076;2022-09-14T17:29:48;41.38;;;39.20;;
64157;SDS011;50449;51.528;5.076;2022-09-14T17:32:13;40.08;;;37.88;;
64157;SDS011;50449;51.528;5.076;2022-09-14T17:34:39;41.45;;;39.00;;
64157;SDS011;50449;51.528;5.076;2022-09-14T17:37:04;40.70;;;38.40;;